sensor_id;sensor_type;location;lat;lon;timestamp;P1;durP1;ratioP1;P2;durP2;ratioP2
22713;SDS011;11524;50.846;4.326;2022-11-13T00:00:32;13.20;;;10.73;;
22713;SDS011;11524;50.846;4.326;2022-11-13T00:02:58;15.35;;;11.00;;
22713;SDS011;11524;50.846;4.326;2022-11-13T00:05:23;14.15;;;10.45;;
22713;SDS011;11524;50.846;4.326;2022-11-13T00:07:49;16.02;;;10.27;;
22713;SDS011;11524;50.846;4.326;2022-11-13T00:10:14;14.20;;;10.98;;
22713;SDS011;11524;50.846;4.326;2022-11-13T00:12:40;12.65;;;9.82;;
22713;SDS011;11524;50.846;4.326;2022-11-13T00:15:06;14.00;;;10.60;;
22713;SDS011;11524;50.846;4.326;2022-11-13T00:17:32;12.90;;;9.98;;
22713;SDS011;11524;50.846;4.326;2022-11-13T00:19:57;11.50;;;9.02;;
22713;SDS011;11524;50.846;4.326;2022-11-13T00:22:23;15.13;;;10.52;;
22713;SDS011;11524;50.846;4.326;2022-11-13T00:24:48;12.57;;;9.65;;
22713;SDS011;11524;50.846;4.326;2022-11-13T00:27:14;12.15;;;10.05;;
22713;SDS011;11524;50.846;4.326;2022-11-13T00:29:39;13.52;;;10.63;;
22713;SDS011;11524;50.846;4.326;2022-11-13T00:32:05;13.57;;;10.55;;
22713;SDS011;11524;50.846;4.326;2022-11-13T00:34:31;12.93;;;10.18;;
22713;SDS011;11524;50.846;4.326;2022-11-13T00:36:56;15.63;;;11.25;;
22713;SDS011;11524;50.846;4.326;2022-11-13T00:39:22;13.15;;;10.10;;
22713;SDS011;11524;50.846;4.326;2022-11-13T00:41:48;14.98;;;10.77;;
22713;SDS011;11524;50.846;4.326;2022-11-13T00:44:13;14.60;;;10.82;;
22713;SDS011;11524;50.846;4.326;2022-11-13T00:46:39;13.07;;;10.25;;
22713;SDS011;11524;50.846;4.326;2022-11-13T00:49:04;13.73;;;10.40;;
22713;SDS011;11524;50.846;4.326;2022-11-13T00:51:30;13.35;;;10.68;;
22713;SDS011;11524;50.846;4.326;2022-11-13T00:53:56;14.55;;;10.63;;
22713;SDS011;11524;50.846;4.326;2022-11-13T00:56:22;13.73;;;10.10;;
22713;SDS011;11524;50.846;4.326;2022-11-13T00:58:47;12.60;;;9.75;;
22713;SDS011;11524;50.846;4.326;2022-11-13T01:01:14;12.20;;;9.63;;
22713;SDS011;11524;50.846;4.326;2022-11-13T01:03:42;15.55;;;10.10;;
22713;SDS011;11524;50.846;4.326;2022-11-13T01:06:08;13.73;;;10.38;;
22713;SDS011;11524;50.846;4.326;2022-11-13T01:08:35;13.55;;;9.60;;
22713;SDS011;11524;50.846;4.326;2022-11-13T01:11:06;14.23;;;10.52;;
22713;SDS011;11524;50.846;4.326;2022-11-13T01:13:39;14.40;;;10.10;;
22713;SDS011;11524;50.846;4.326;2022-11-13T01:16:07;13.13;;;10.32;;
22713;SDS011;11524;50.846;4.326;2022-11-13T01:18:34;13.65;;;9.75;;
22713;SDS011;11524;50.846;4.326;2022-11-13T01:21:01;13.55;;;10.60;;
22713;SDS011;11524;50.846;4.326;2022-11-13T01:23:31;13.35;;;11.32;;
22713;SDS011;11524;50.846;4.326;2022-11-13T01:26:11;14.32;;;10.63;;
22713;SDS011;11524;50.846;4.326;2022-11-13T01:28:39;13.57;;;10.80;;
22713;SDS011;11524;50.846;4.326;2022-11-13T01:31:10;14.73;;;11.02;;
22713;SDS011;11524;50.846;4.326;2022-11-13T01:33:37;14.00;;;10.93;;
22713;SDS011;11524;50.846;4.326;2022-11-13T01:36:06;14.55;;;10.07;;
22713;SDS011;11524;50.846;4.326;2022-11-13T01:38:35;13.45;;;9.82;;
22713;SDS011;11524;50.846;4.326;2022-11-13T01:41:00;11.82;;;9.32;;
22713;SDS011;11524;50.846;4.326;2022-11-13T01:43:27;11.70;;;9.05;;
22713;SDS011;11524;50.846;4.326;2022-11-13T01:51:32;12.68;;;9.70;;
22713;SDS011;11524;50.846;4.326;2022-11-13T01:54:02;13.80;;;10.15;;
22713;SDS011;11524;50.846;4.326;2022-11-13T01:56:31;12.85;;;10.57;;
22713;SDS011;11524;50.846;4.326;2022-11-13T01:58:57;12.82;;;10.45;;
22713;SDS011;11524;50.846;4.326;2022-11-13T02:01:31;18.15;;;13.23;;
22713;SDS011;11524;50.846;4.326;2022-11-13T02:03:56;14.60;;;11.93;;
22713;SDS011;11524;50.846;4.326;2022-11-13T02:06:22;15.90;;;12.80;;
22713;SDS011;11524;50.846;4.326;2022-11-13T02:08:49;17.48;;;13.45;;
22713;SDS011;11524;50.846;4.326;2022-11-13T02:11:15;25.10;;;14.25;;
22713;SDS011;11524;50.846;4.326;2022-11-13T02:13:42;21.73;;;13.77;;
22713;SDS011;11524;50.846;4.326;2022-11-13T02:16:08;16.02;;;13.38;;
22713;SDS011;11524;50.846;4.326;2022-11-13T02:18:35;19.83;;;13.30;;
22713;SDS011;11524;50.846;4.326;2022-11-13T02:27:05;18.92;;;14.07;;
22713;SDS011;11524;50.846;4.326;2022-11-13T02:29:35;16.17;;;12.63;;
22713;SDS011;11524;50.846;4.326;2022-11-13T02:32:01;17.10;;;12.82;;
22713;SDS011;11524;50.846;4.326;2022-11-13T02:34:27;18.55;;;14.98;;
22713;SDS011;11524;50.846;4.326;2022-11-13T02:36:52;18.85;;;12.82;;
22713;SDS011;11524;50.846;4.326;2022-11-13T02:39:18;17.63;;;13.45;;
22713;SDS011;11524;50.846;4.326;2022-11-13T02:41:43;15.10;;;12.38;;
22713;SDS011;11524;50.846;4.326;2022-11-13T02:44:10;18.38;;;13.38;;
22713;SDS011;11524;50.846;4.326;2022-11-13T02:46:36;18.48;;;13.57;;
22713;SDS011;11524;50.846;4.326;2022-11-13T02:49:02;17.52;;;13.05;;
22713;SDS011;11524;50.846;4.326;2022-11-13T02:51:28;16.20;;;13.10;;
22713;SDS011;11524;50.846;4.326;2022-11-13T02:53:54;17.60;;;13.27;;
22713;SDS011;11524;50.846;4.326;2022-11-13T02:56:20;16.83;;;12.68;;
22713;SDS011;11524;50.846;4.326;2022-11-13T02:58:45;17.98;;;12.93;;
22713;SDS011;11524;50.846;4.326;2022-11-13T03:01:11;19.67;;;14.05;;
22713;SDS011;11524;50.846;4.326;2022-11-13T03:03:36;18.10;;;14.13;;
22713;SDS011;11524;50.846;4.326;2022-11-13T03:06:02;20.20;;;14.00;;
22713;SDS011;11524;50.846;4.326;2022-11-13T03:08:28;18.90;;;13.23;;
22713;SDS011;11524;50.846;4.326;2022-11-13T03:10:55;16.88;;;13.32;;
22713;SDS011;11524;50.846;4.326;2022-11-13T03:13:20;16.17;;;12.73;;
22713;SDS011;11524;50.846;4.326;2022-11-13T03:15:46;15.95;;;12.23;;
22713;SDS011;11524;50.846;4.326;2022-11-13T03:18:11;14.20;;;11.75;;
22713;SDS011;11524;50.846;4.326;2022-11-13T03:20:38;15.35;;;12.52;;
22713;SDS011;11524;50.846;4.326;2022-11-13T03:23:06;15.27;;;12.20;;
22713;SDS011;11524;50.846;4.326;2022-11-13T03:25:32;13.73;;;11.13;;
22713;SDS011;11524;50.846;4.326;2022-11-13T03:27:58;14.77;;;11.82;;
22713;SDS011;11524;50.846;4.326;2022-11-13T03:30:24;12.82;;;11.10;;
22713;SDS011;11524;50.846;4.326;2022-11-13T03:32:54;14.02;;;11.00;;
22713;SDS011;11524;50.846;4.326;2022-11-13T03:35:20;13.50;;;11.07;;
22713;SDS011;11524;50.846;4.326;2022-11-13T03:37:47;13.20;;;10.55;;
22713;SDS011;11524;50.846;4.326;2022-11-13T03:40:13;13.25;;;11.23;;
22713;SDS011;11524;50.846;4.326;2022-11-13T03:42:38;12.98;;;11.05;;
22713;SDS011;11524;50.846;4.326;2022-11-13T03:45:04;14.80;;;11.13;;
22713;SDS011;11524;50.846;4.326;2022-11-13T03:47:30;15.48;;;11.32;;
22713;SDS011;11524;50.846;4.326;2022-11-13T03:49:55;13.77;;;11.23;;
22713;SDS011;11524;50.846;4.326;2022-11-13T03:52:21;12.75;;;10.88;;
22713;SDS011;11524;50.846;4.326;2022-11-13T03:54:46;14.80;;;11.05;;
22713;SDS011;11524;50.846;4.326;2022-11-13T03:57:12;14.07;;;10.82;;
22713;SDS011;11524;50.846;4.326;2022-11-13T03:59:37;14.23;;;11.00;;
22713;SDS011;11524;50.846;4.326;2022-11-13T04:02:03;15.60;;;10.55;;
22713;SDS011;11524;50.846;4.326;2022-11-13T04:04:28;13.18;;;11.05;;
22713;SDS011;11524;50.846;4.326;2022-11-13T04:06:54;13.40;;;10.63;;
22713;SDS011;11524;50.846;4.326;2022-11-13T04:09:20;14.13;;;11.23;;
22713;SDS011;11524;50.846;4.326;2022-11-13T04:11:46;12.55;;;10.40;;
22713;SDS011;11524;50.846;4.326;2022-11-13T04:14:11;14.82;;;11.02;;
22713;SDS011;11524;50.846;4.326;2022-11-13T04:16:37;13.98;;;10.20;;
22713;SDS011;11524;50.846;4.326;2022-11-13T04:19:02;13.30;;;10.05;;
22713;SDS011;11524;50.846;4.326;2022-11-13T04:21:28;13.25;;;10.20;;
22713;SDS011;11524;50.846;4.326;2022-11-13T04:23:54;13.73;;;9.93;;
22713;SDS011;11524;50.846;4.326;2022-11-13T04:26:19;13.80;;;9.93;;
22713;SDS011;11524;50.846;4.326;2022-11-13T04:28:45;13.60;;;10.30;;
22713;SDS011;11524;50.846;4.326;2022-11-13T04:31:10;12.80;;;10.05;;
22713;SDS011;11524;50.846;4.326;2022-11-13T04:33:36;13.60;;;10.63;;
22713;SDS011;11524;50.846;4.326;2022-11-13T04:36:02;13.65;;;10.82;;
22713;SDS011;11524;50.846;4.326;2022-11-13T04:38:27;11.80;;;9.60;;
22713;SDS011;11524;50.846;4.326;2022-11-13T04:40:53;13.27;;;10.68;;
22713;SDS011;11524;50.846;4.326;2022-11-13T04:43:38;14.05;;;10.07;;
22713;SDS011;11524;50.846;4.326;2022-11-13T04:46:04;12.02;;;9.90;;
22713;SDS011;11524;50.846;4.326;2022-11-13T04:48:30;11.60;;;10.38;;
22713;SDS011;11524;50.846;4.326;2022-11-13T04:50:55;11.80;;;9.70;;
22713;SDS011;11524;50.846;4.326;2022-11-13T04:53:21;12.60;;;10.23;;
22713;SDS011;11524;50.846;4.326;2022-11-13T04:55:46;11.90;;;10.15;;
22713;SDS011;11524;50.846;4.326;2022-11-13T04:58:12;12.70;;;9.57;;
22713;SDS011;11524;50.846;4.326;2022-11-13T05:00:38;12.07;;;9.93;;
22713;SDS011;11524;50.846;4.326;2022-11-13T05:03:03;13.00;;;10.20;;
22713;SDS011;11524;50.846;4.326;2022-11-13T05:05:29;12.75;;;10.20;;
22713;SDS011;11524;50.846;4.326;2022-11-13T05:07:54;10.73;;;9.32;;
22713;SDS011;11524;50.846;4.326;2022-11-13T05:10:20;13.00;;;10.05;;
22713;SDS011;11524;50.846;4.326;2022-11-13T05:12:46;11.57;;;9.57;;
22713;SDS011;11524;50.846;4.326;2022-11-13T05:15:11;14.65;;;9.77;;
22713;SDS011;11524;50.846;4.326;2022-11-13T05:17:37;11.93;;;9.32;;
22713;SDS011;11524;50.846;4.326;2022-11-13T05:20:03;12.82;;;9.45;;
22713;SDS011;11524;50.846;4.326;2022-11-13T05:22:29;13.15;;;10.50;;
22713;SDS011;11524;50.846;4.326;2022-11-13T05:24:55;11.80;;;9.57;;
22713;SDS011;11524;50.846;4.326;2022-11-13T05:27:20;12.65;;;9.98;;
22713;SDS011;11524;50.846;4.326;2022-11-13T05:29:46;12.77;;;9.40;;
22713;SDS011;11524;50.846;4.326;2022-11-13T05:32:11;12.23;;;9.20;;
22713;SDS011;11524;50.846;4.326;2022-11-13T05:34:37;12.40;;;9.52;;
22713;SDS011;11524;50.846;4.326;2022-11-13T05:37:03;9.43;;;8.43;;
22713;SDS011;11524;50.846;4.326;2022-11-13T05:39:28;10.02;;;8.95;;
22713;SDS011;11524;50.846;4.326;2022-11-13T05:41:54;11.07;;;9.43;;
22713;SDS011;11524;50.846;4.326;2022-11-13T05:44:19;10.57;;;8.80;;
22713;SDS011;11524;50.846;4.326;2022-11-13T05:46:45;13.68;;;9.60;;
22713;SDS011;11524;50.846;4.326;2022-11-13T05:49:11;12.68;;;9.20;;
22713;SDS011;11524;50.846;4.326;2022-11-13T05:51:36;13.35;;;9.38;;
22713;SDS011;11524;50.846;4.326;2022-11-13T05:54:02;12.80;;;9.90;;
22713;SDS011;11524;50.846;4.326;2022-11-13T05:56:29;11.13;;;9.35;;
22713;SDS011;11524;50.846;4.326;2022-11-13T05:58:57;10.98;;;9.70;;
22713;SDS011;11524;50.846;4.326;2022-11-13T06:01:25;10.65;;;9.55;;
22713;SDS011;11524;50.846;4.326;2022-11-13T06:03:56;11.82;;;9.50;;
22713;SDS011;11524;50.846;4.326;2022-11-13T06:06:23;13.70;;;9.18;;
22713;SDS011;11524;50.846;4.326;2022-11-13T06:08:50;11.10;;;9.05;;
22713;SDS011;11524;50.846;4.326;2022-11-13T06:11:17;12.77;;;9.90;;
22713;SDS011;11524;50.846;4.326;2022-11-13T06:13:45;12.38;;;10.30;;
22713;SDS011;11524;50.846;4.326;2022-11-13T06:16:15;12.85;;;9.80;;
22713;SDS011;11524;50.846;4.326;2022-11-13T06:18:46;11.63;;;9.43;;
22713;SDS011;11524;50.846;4.326;2022-11-13T06:21:13;12.15;;;9.20;;
22713;SDS011;11524;50.846;4.326;2022-11-13T06:23:41;11.70;;;9.05;;
22713;SDS011;11524;50.846;4.326;2022-11-13T06:26:08;13.77;;;9.88;;
22713;SDS011;11524;50.846;4.326;2022-11-13T06:28:41;11.52;;;10.02;;
22713;SDS011;11524;50.846;4.326;2022-11-13T06:31:08;12.13;;;9.05;;
22713;SDS011;11524;50.846;4.326;2022-11-13T06:33:36;11.55;;;9.43;;
22713;SDS011;11524;50.846;4.326;2022-11-13T06:36:02;11.18;;;9.43;;
22713;SDS011;11524;50.846;4.326;2022-11-13T06:38:33;11.75;;;9.60;;
22713;SDS011;11524;50.846;4.326;2022-11-13T06:41:00;11.95;;;9.77;;
22713;SDS011;11524;50.846;4.326;2022-11-13T06:43:26;11.10;;;9.07;;
22713;SDS011;11524;50.846;4.326;2022-11-13T06:45:53;12.43;;;9.25;;
22713;SDS011;11524;50.846;4.326;2022-11-13T06:48:19;10.20;;;8.45;;
22713;SDS011;11524;50.846;4.326;2022-11-13T06:50:45;10.82;;;9.68;;
22713;SDS011;11524;50.846;4.326;2022-11-13T06:53:11;11.90;;;9.93;;
22713;SDS011;11524;50.846;4.326;2022-11-13T06:55:43;11.43;;;9.65;;
22713;SDS011;11524;50.846;4.326;2022-11-13T06:58:10;11.57;;;9.48;;
22713;SDS011;11524;50.846;4.326;2022-11-13T07:00:36;12.18;;;9.25;;
22713;SDS011;11524;50.846;4.326;2022-11-13T07:03:02;11.85;;;9.45;;
22713;SDS011;11524;50.846;4.326;2022-11-13T07:05:28;12.20;;;10.00;;
22713;SDS011;11524;50.846;4.326;2022-11-13T07:07:53;10.00;;;8.63;;
22713;SDS011;11524;50.846;4.326;2022-11-13T07:10:19;12.00;;;8.57;;
22713;SDS011;11524;50.846;4.326;2022-11-13T07:12:44;10.88;;;9.70;;
22713;SDS011;11524;50.846;4.326;2022-11-13T07:15:10;10.80;;;8.88;;
22713;SDS011;11524;50.846;4.326;2022-11-13T07:17:35;11.77;;;8.75;;
22713;SDS011;11524;50.846;4.326;2022-11-13T07:20:01;10.55;;;8.93;;
22713;SDS011;11524;50.846;4.326;2022-11-13T07:22:28;10.57;;;9.25;;
22713;SDS011;11524;50.846;4.326;2022-11-13T07:24:54;11.68;;;9.10;;
22713;SDS011;11524;50.846;4.326;2022-11-13T07:27:20;11.25;;;9.25;;
22713;SDS011;11524;50.846;4.326;2022-11-13T07:29:46;10.10;;;9.00;;
22713;SDS011;11524;50.846;4.326;2022-11-13T07:32:11;11.02;;;8.65;;
22713;SDS011;11524;50.846;4.326;2022-11-13T07:34:37;12.30;;;9.38;;
22713;SDS011;11524;50.846;4.326;2022-11-13T07:37:03;10.30;;;8.40;;
22713;SDS011;11524;50.846;4.326;2022-11-13T07:39:30;10.60;;;8.77;;
22713;SDS011;11524;50.846;4.326;2022-11-13T07:41:56;11.70;;;8.80;;
22713;SDS011;11524;50.846;4.326;2022-11-13T07:44:22;10.52;;;8.68;;
22713;SDS011;11524;50.846;4.326;2022-11-13T07:46:47;11.27;;;8.35;;
22713;SDS011;11524;50.846;4.326;2022-11-13T07:49:13;10.52;;;8.85;;
22713;SDS011;11524;50.846;4.326;2022-11-13T07:51:39;14.25;;;9.23;;
22713;SDS011;11524;50.846;4.326;2022-11-13T07:54:04;11.02;;;9.05;;
22713;SDS011;11524;50.846;4.326;2022-11-13T07:56:30;12.23;;;8.98;;
22713;SDS011;11524;50.846;4.326;2022-11-13T07:58:55;10.27;;;8.60;;
22713;SDS011;11524;50.846;4.326;2022-11-13T08:01:21;9.60;;;8.38;;
22713;SDS011;11524;50.846;4.326;2022-11-13T08:03:47;10.82;;;8.80;;
22713;SDS011;11524;50.846;4.326;2022-11-13T08:06:12;11.23;;;8.80;;
22713;SDS011;11524;50.846;4.326;2022-11-13T08:08:38;14.15;;;8.55;;
22713;SDS011;11524;50.846;4.326;2022-11-13T08:11:04;10.88;;;8.88;;
22713;SDS011;11524;50.846;4.326;2022-11-13T08:13:31;12.07;;;7.95;;
22713;SDS011;11524;50.846;4.326;2022-11-13T08:15:58;10.73;;;8.27;;
22713;SDS011;11524;50.846;4.326;2022-11-13T08:18:25;14.00;;;8.25;;
22713;SDS011;11524;50.846;4.326;2022-11-13T08:20:52;13.30;;;9.05;;
22713;SDS011;11524;50.846;4.326;2022-11-13T08:23:18;11.93;;;8.60;;
22713;SDS011;11524;50.846;4.326;2022-11-13T08:25:43;10.32;;;7.80;;
22713;SDS011;11524;50.846;4.326;2022-11-13T08:28:09;13.90;;;8.13;;
22713;SDS011;11524;50.846;4.326;2022-11-13T08:30:36;11.95;;;8.32;;
22713;SDS011;11524;50.846;4.326;2022-11-13T08:33:02;10.30;;;7.93;;
22713;SDS011;11524;50.846;4.326;2022-11-13T08:35:28;11.50;;;9.98;;
22713;SDS011;11524;50.846;4.326;2022-11-13T08:37:53;12.65;;;10.18;;
22713;SDS011;11524;50.846;4.326;2022-11-13T08:40:19;14.82;;;11.18;;
22713;SDS011;11524;50.846;4.326;2022-11-13T08:42:45;14.07;;;10.45;;
22713;SDS011;11524;50.846;4.326;2022-11-13T08:45:11;14.25;;;12.05;;
22713;SDS011;11524;50.846;4.326;2022-11-13T08:47:36;16.95;;;11.30;;
22713;SDS011;11524;50.846;4.326;2022-11-13T08:50:03;16.05;;;11.77;;
22713;SDS011;11524;50.846;4.326;2022-11-13T08:52:30;13.13;;;11.02;;
22713;SDS011;11524;50.846;4.326;2022-11-13T08:54:55;12.55;;;11.20;;
22713;SDS011;11524;50.846;4.326;2022-11-13T08:57:21;13.63;;;11.15;;
22713;SDS011;11524;50.846;4.326;2022-11-13T08:59:46;14.57;;;11.00;;
22713;SDS011;11524;50.846;4.326;2022-11-13T09:02:13;15.57;;;11.90;;
22713;SDS011;11524;50.846;4.326;2022-11-13T09:04:39;15.50;;;12.73;;
22713;SDS011;11524;50.846;4.326;2022-11-13T09:07:05;15.85;;;13.30;;
22713;SDS011;11524;50.846;4.326;2022-11-13T09:09:31;16.60;;;12.65;;
22713;SDS011;11524;50.846;4.326;2022-11-13T09:11:58;19.08;;;13.48;;
22713;SDS011;11524;50.846;4.326;2022-11-13T09:14:24;19.02;;;13.70;;
22713;SDS011;11524;50.846;4.326;2022-11-13T09:16:49;17.25;;;12.32;;
22713;SDS011;11524;50.846;4.326;2022-11-13T09:19:15;17.25;;;12.20;;
22713;SDS011;11524;50.846;4.326;2022-11-13T09:21:40;14.88;;;12.00;;
22713;SDS011;11524;50.846;4.326;2022-11-13T09:24:06;16.50;;;12.02;;
22713;SDS011;11524;50.846;4.326;2022-11-13T09:26:33;17.23;;;13.30;;
22713;SDS011;11524;50.846;4.326;2022-11-13T09:28:59;19.40;;;13.25;;
22713;SDS011;11524;50.846;4.326;2022-11-13T09:31:25;15.18;;;10.85;;
22713;SDS011;11524;50.846;4.326;2022-11-13T09:33:51;16.73;;;11.45;;
22713;SDS011;11524;50.846;4.326;2022-11-13T09:36:16;13.77;;;11.00;;
22713;SDS011;11524;50.846;4.326;2022-11-13T09:38:42;15.45;;;10.52;;
22713;SDS011;11524;50.846;4.326;2022-11-13T09:41:09;11.85;;;9.95;;
22713;SDS011;11524;50.846;4.326;2022-11-13T09:43:51;13.02;;;10.38;;
22713;SDS011;11524;50.846;4.326;2022-11-13T09:49:15;12.07;;;9.40;;
22713;SDS011;11524;50.846;4.326;2022-11-13T09:51:54;11.27;;;8.98;;
22713;SDS011;11524;50.846;4.326;2022-11-13T09:54:23;16.77;;;9.68;;
22713;SDS011;11524;50.846;4.326;2022-11-13T09:56:51;10.45;;;8.88;;
22713;SDS011;11524;50.846;4.326;2022-11-13T09:59:52;14.13;;;9.10;;
22713;SDS011;11524;50.846;4.326;2022-11-13T10:05:58;15.85;;;10.07;;
22713;SDS011;11524;50.846;4.326;2022-11-13T10:08:48;16.83;;;9.38;;
22713;SDS011;11524;50.846;4.326;2022-11-13T10:11:38;17.33;;;9.48;;
22713;SDS011;11524;50.846;4.326;2022-11-13T10:16:58;12.85;;;8.85;;
22713;SDS011;11524;50.846;4.326;2022-11-13T10:22:27;14.13;;;9.13;;
22713;SDS011;11524;50.846;4.326;2022-11-13T10:25:15;15.38;;;9.52;;
22713;SDS011;11524;50.846;4.326;2022-11-13T10:27:43;14.25;;;8.75;;
22713;SDS011;11524;50.846;4.326;2022-11-13T10:30:15;15.23;;;7.93;;
22713;SDS011;11524;50.846;4.326;2022-11-13T10:32:42;17.33;;;8.75;;
22713;SDS011;11524;50.846;4.326;2022-11-13T10:35:52;14.63;;;9.30;;
22713;SDS011;11524;50.846;4.326;2022-11-13T10:38:08;17.38;;;8.73;;
22713;SDS011;11524;50.846;4.326;2022-11-13T10:40:42;13.77;;;8.80;;
22713;SDS011;11524;50.846;4.326;2022-11-13T10:43:12;15.10;;;8.98;;
22713;SDS011;11524;50.846;4.326;2022-11-13T10:45:42;14.73;;;9.27;;
22713;SDS011;11524;50.846;4.326;2022-11-13T10:48:38;14.60;;;8.68;;
22713;SDS011;11524;50.846;4.326;2022-11-13T10:51:04;16.25;;;9.02;;
22713;SDS011;11524;50.846;4.326;2022-11-13T10:53:43;16.83;;;8.18;;
22713;SDS011;11524;50.846;4.326;2022-11-13T10:56:13;14.95;;;8.80;;
22713;SDS011;11524;50.846;4.326;2022-11-13T11:01:28;14.25;;;8.60;;
22713;SDS011;11524;50.846;4.326;2022-11-13T11:03:53;14.60;;;8.18;;
22713;SDS011;11524;50.846;4.326;2022-11-13T11:06:19;15.20;;;8.48;;
22713;SDS011;11524;50.846;4.326;2022-11-13T11:11:44;18.30;;;8.00;;
22713;SDS011;11524;50.846;4.326;2022-11-13T11:14:41;14.23;;;8.35;;
22713;SDS011;11524;50.846;4.326;2022-11-13T11:17:17;12.48;;;7.85;;
22713;SDS011;11524;50.846;4.326;2022-11-13T11:19:48;11.43;;;6.80;;
22713;SDS011;11524;50.846;4.326;2022-11-13T11:22:21;14.43;;;8.23;;
22713;SDS011;11524;50.846;4.326;2022-11-13T11:24:55;13.32;;;7.07;;
22713;SDS011;11524;50.846;4.326;2022-11-13T11:27:38;11.43;;;6.65;;
22713;SDS011;11524;50.846;4.326;2022-11-13T11:41:12;9.65;;;6.60;;
22713;SDS011;11524;50.846;4.326;2022-11-13T11:43:42;9.05;;;6.03;;
22713;SDS011;11524;50.846;4.326;2022-11-13T11:46:13;10.45;;;6.00;;
22713;SDS011;11524;50.846;4.326;2022-11-13T11:48:41;8.30;;;5.80;;
22713;SDS011;11524;50.846;4.326;2022-11-13T11:51:20;7.85;;;5.20;;
22713;SDS011;11524;50.846;4.326;2022-11-13T11:56:33;6.88;;;5.18;;
22713;SDS011;11524;50.846;4.326;2022-11-13T11:59:16;8.20;;;4.80;;
22713;SDS011;11524;50.846;4.326;2022-11-13T12:02:12;7.85;;;5.05;;
22713;SDS011;11524;50.846;4.326;2022-11-13T12:05:33;8.85;;;4.65;;
22713;SDS011;11524;50.846;4.326;2022-11-13T12:16:44;5.43;;;3.83;;
22713;SDS011;11524;50.846;4.326;2022-11-13T12:22:38;6.78;;;4.47;;
22713;SDS011;11524;50.846;4.326;2022-11-13T12:25:18;6.65;;;4.70;;
22713;SDS011;11524;50.846;4.326;2022-11-13T12:36:17;5.28;;;3.67;;
22713;SDS011;11524;50.846;4.326;2022-11-13T12:38:47;5.15;;;3.83;;
22713;SDS011;11524;50.846;4.326;2022-11-13T12:42:12;6.63;;;4.05;;
22713;SDS011;11524;50.846;4.326;2022-11-13T12:44:25;4.38;;;3.50;;
22713;SDS011;11524;50.846;4.326;2022-11-13T12:46:52;7.38;;;3.65;;
22713;SDS011;11524;50.846;4.326;2022-11-13T12:52:00;5.55;;;3.95;;
22713;SDS011;11524;50.846;4.326;2022-11-13T12:54:28;7.35;;;3.83;;
22713;SDS011;11524;50.846;4.326;2022-11-13T12:57:14;5.55;;;3.47;;
22713;SDS011;11524;50.846;4.326;2022-11-13T12:59:47;4.55;;;3.22;;
22713;SDS011;11524;50.846;4.326;2022-11-13T13:02:28;4.18;;;3.35;;
22713;SDS011;11524;50.846;4.326;2022-11-13T13:07:52;4.90;;;3.20;;
22713;SDS011;11524;50.846;4.326;2022-11-13T13:16:02;3.83;;;2.92;;
22713;SDS011;11524;50.846;4.326;2022-11-13T13:18:35;3.85;;;3.20;;
22713;SDS011;11524;50.846;4.326;2022-11-13T13:21:12;4.15;;;2.92;;
22713;SDS011;11524;50.846;4.326;2022-11-13T13:28:41;3.97;;;3.00;;
22713;SDS011;11524;50.846;4.326;2022-11-13T13:33:59;4.38;;;3.28;;
22713;SDS011;11524;50.846;4.326;2022-11-13T13:36:44;4.38;;;2.72;;
22713;SDS011;11524;50.846;4.326;2022-11-13T13:42:42;4.10;;;2.97;;
22713;SDS011;11524;50.846;4.326;2022-11-13T13:48:18;4.03;;;2.72;;
22713;SDS011;11524;50.846;4.326;2022-11-13T13:50:48;5.60;;;3.60;;
22713;SDS011;11524;50.846;4.326;2022-11-13T13:53:15;3.78;;;2.90;;
22713;SDS011;11524;50.846;4.326;2022-11-13T13:55:47;5.90;;;2.92;;
22713;SDS011;11524;50.846;4.326;2022-11-13T13:58:16;3.83;;;2.72;;
22713;SDS011;11524;50.846;4.326;2022-11-13T14:00:56;3.63;;;2.75;;
22713;SDS011;11524;50.846;4.326;2022-11-13T14:03:24;3.50;;;2.80;;
22713;SDS011;11524;50.846;4.326;2022-11-13T14:05:53;4.30;;;3.30;;
22713;SDS011;11524;50.846;4.326;2022-11-13T14:08:20;4.18;;;3.10;;
22713;SDS011;11524;50.846;4.326;2022-11-13T14:10:48;4.50;;;3.03;;
22713;SDS011;11524;50.846;4.326;2022-11-13T14:13:24;5.18;;;2.88;;
22713;SDS011;11524;50.846;4.326;2022-11-13T14:16:04;3.22;;;2.70;;
22713;SDS011;11524;50.846;4.326;2022-11-13T14:18:31;3.80;;;3.13;;
22713;SDS011;11524;50.846;4.326;2022-11-13T14:20:58;7.53;;;3.03;;
22713;SDS011;11524;50.846;4.326;2022-11-13T14:23:33;5.72;;;3.20;;
22713;SDS011;11524;50.846;4.326;2022-11-13T14:26:08;5.40;;;3.00;;
22713;SDS011;11524;50.846;4.326;2022-11-13T14:28:44;3.92;;;2.80;;
22713;SDS011;11524;50.846;4.326;2022-11-13T14:31:16;4.30;;;3.15;;
22713;SDS011;11524;50.846;4.326;2022-11-13T14:33:43;3.30;;;3.00;;
22713;SDS011;11524;50.846;4.326;2022-11-13T14:36:11;4.20;;;3.03;;
22713;SDS011;11524;50.846;4.326;2022-11-13T14:38:43;4.05;;;3.13;;
22713;SDS011;11524;50.846;4.326;2022-11-13T14:41:16;4.60;;;2.92;;
22713;SDS011;11524;50.846;4.326;2022-11-13T14:43:47;3.50;;;3.05;;
22713;SDS011;11524;50.846;4.326;2022-11-13T14:46:32;3.67;;;2.90;;
22713;SDS011;11524;50.846;4.326;2022-11-13T14:49:00;4.40;;;3.60;;
22713;SDS011;11524;50.846;4.326;2022-11-13T14:51:27;4.18;;;3.00;;
22713;SDS011;11524;50.846;4.326;2022-11-13T14:54:00;4.32;;;2.95;;
22713;SDS011;11524;50.846;4.326;2022-11-13T14:56:35;3.95;;;3.08;;
22713;SDS011;11524;50.846;4.326;2022-11-13T14:59:06;3.35;;;2.97;;
22713;SDS011;11524;50.846;4.326;2022-11-13T15:01:37;3.35;;;2.95;;
22713;SDS011;11524;50.846;4.326;2022-11-13T15:04:03;4.10;;;3.10;;
22713;SDS011;11524;50.846;4.326;2022-11-13T15:06:33;4.07;;;3.05;;
22713;SDS011;11524;50.846;4.326;2022-11-13T15:09:02;5.65;;;3.08;;
22713;SDS011;11524;50.846;4.326;2022-11-13T15:11:30;4.50;;;3.28;;
22713;SDS011;11524;50.846;4.326;2022-11-13T15:13:56;6.25;;;2.97;;
22713;SDS011;11524;50.846;4.326;2022-11-13T15:16:22;3.95;;;2.75;;
22713;SDS011;11524;50.846;4.326;2022-11-13T15:18:59;3.55;;;3.00;;
22713;SDS011;11524;50.846;4.326;2022-11-13T15:21:28;4.88;;;3.30;;
22713;SDS011;11524;50.846;4.326;2022-11-13T15:23:54;3.95;;;2.90;;
22713;SDS011;11524;50.846;4.326;2022-11-13T15:26:21;4.35;;;3.25;;
22713;SDS011;11524;50.846;4.326;2022-11-13T15:28:47;4.22;;;3.42;;
22713;SDS011;11524;50.846;4.326;2022-11-13T15:31:17;4.68;;;3.50;;
22713;SDS011;11524;50.846;4.326;2022-11-13T15:34:04;5.82;;;3.78;;
22713;SDS011;11524;50.846;4.326;2022-11-13T15:36:29;5.85;;;3.90;;
22713;SDS011;11524;50.846;4.326;2022-11-13T15:38:55;4.88;;;3.70;;
22713;SDS011;11524;50.846;4.326;2022-11-13T15:41:23;6.38;;;3.90;;
22713;SDS011;11524;50.846;4.326;2022-11-13T15:43:52;4.95;;;3.63;;
22713;SDS011;11524;50.846;4.326;2022-11-13T15:46:19;5.38;;;3.83;;
22713;SDS011;11524;50.846;4.326;2022-11-13T15:48:47;4.75;;;3.75;;
22713;SDS011;11524;50.846;4.326;2022-11-13T15:53:55;4.60;;;3.30;;
22713;SDS011;11524;50.846;4.326;2022-11-13T15:56:26;6.57;;;4.05;;
22713;SDS011;11524;50.846;4.326;2022-11-13T15:58:53;5.97;;;3.85;;
22713;SDS011;11524;50.846;4.326;2022-11-13T16:01:18;5.20;;;3.47;;
22713;SDS011;11524;50.846;4.326;2022-11-13T16:03:44;6.07;;;3.50;;
22713;SDS011;11524;50.846;4.326;2022-11-13T16:06:10;4.78;;;3.78;;
22713;SDS011;11524;50.846;4.326;2022-11-13T16:08:41;4.93;;;3.70;;
22713;SDS011;11524;50.846;4.326;2022-11-13T16:11:16;10.05;;;4.65;;
22713;SDS011;11524;50.846;4.326;2022-11-13T16:13:43;9.70;;;4.97;;